createdAt,value
2022-09-11T00:08:25.699Z,91.70
2022-09-11T00:18:29.573Z,85.90
2022-09-11T00:28:34.861Z,88.47
2022-09-11T00:38:39.976Z,91.60
2022-09-11T00:48:50.194Z,87.07
2022-09-11T00:58:56.370Z,88.90
2022-09-11T01:09:01.837Z,87.77
2022-09-11T01:19:19.655Z,98.33
2022-09-11T01:29:30.807Z,90.50
2022-09-11T01:39:41.778Z,90.97
2022-09-11T01:49:50.528Z,91.77
2022-09-11T02:00:03.353Z,94.33
2022-09-11T02:10:17.356Z,92.97
2022-09-11T02:20:21.842Z,92.27
2022-09-11T02:30:26.996Z,89.60
2022-09-11T02:40:46.627Z,94.53
2022-09-11T02:51:01.555Z,93.27
2022-09-11T03:01:06.438Z,92.10
2022-09-11T03:11:12.412Z,91.93
2022-09-11T03:21:17.063Z,89.90
2022-09-11T03:31:22.508Z,90.87
2022-09-11T03:41:26.907Z,89.03
2022-09-11T03:51:32.467Z,88.60
2022-09-11T04:01:36.797Z,92.67
2022-09-11T04:11:42.093Z,90.83
2022-09-11T04:21:55.394Z,89.20
2022-09-11T04:32:00.858Z,89.73
2022-09-11T04:42:10.614Z,89.03
2022-09-11T04:52:17.350Z,89.63
2022-09-11T05:02:22.049Z,94.17
2022-09-11T05:12:33.691Z,91.77
2022-09-11T05:22:37.479Z,95.77
2022-09-11T05:32:42.566Z,98.93
2022-09-11T05:42:46.390Z,93.77
2022-09-11T05:52:52.361Z,100.00
2022-09-11T06:02:56.331Z,96.97
2022-09-11T06:13:05.178Z,100.53
2022-09-11T06:23:13.343Z,98.23
2022-09-11T06:33:20.493Z,104.97
2022-09-11T06:43:25.118Z,96.97
2022-09-11T06:53:30.291Z,98.37
2022-09-11T07:03:35.100Z,99.23
2022-09-11T07:13:44.513Z,97.30
2022-09-11T07:23:50.753Z,97.70
2022-09-11T07:33:57.077Z,97.10
2022-09-11T07:44:03.773Z,98.27
2022-09-11T07:54:15.873Z,101.10
2022-09-11T08:04:20.452Z,107.07
2022-09-11T08:14:27.475Z,113.63
2022-09-11T08:24:36.772Z,105.60
2022-09-11T08:34:43.443Z,102.93
2022-09-11T08:44:51.417Z,103.03
2022-09-11T08:55:02.404Z,102.60
2022-09-11T09:05:22.696Z,100.63
2022-09-11T09:15:39.219Z,96.47
2022-09-11T09:25:44.627Z,97.27
2022-09-11T09:35:51.292Z,99.87
2022-09-11T09:46:16.043Z,100.20
2022-09-11T09:56:25.555Z,101.83
2022-09-11T10:06:29.517Z,110.77
2022-09-11T10:16:35.167Z,112.97
2022-09-11T10:26:46.096Z,102.70
2022-09-11T10:37:00.806Z,108.60
2022-09-11T10:47:07.040Z,109.00
2022-09-11T10:57:20.297Z,106.30
2022-09-11T11:07:57.806Z,105.47
2022-09-11T11:18:23.826Z,104.30
2022-09-11T11:28:49.045Z,107.07
2022-09-11T11:39:02.101Z,107.77
2022-09-11T11:49:10.811Z,107.50
2022-09-11T11:59:24.434Z,105.63
2022-09-11T12:09:33.929Z,108.40
2022-09-11T12:19:39.041Z,107.47
2022-09-11T12:29:54.387Z,108.77
2022-09-11T12:40:09.263Z,105.77
2022-09-11T12:50:20.445Z,106.63
2022-09-11T13:00:38.010Z,117.00
2022-09-11T13:10:42.117Z,112.90
2022-09-11T13:21:04.876Z,108.23
2022-09-11T13:31:17.326Z,112.73
2022-09-11T13:41:29.861Z,108.00
2022-09-11T13:51:34.967Z,106.23
2022-09-11T14:01:55.661Z,105.20
2022-09-11T14:12:04.403Z,101.83
2022-09-11T14:22:22.760Z,101.63
2022-09-11T14:32:37.020Z,102.33
2022-09-11T14:42:44.221Z,103.47
2022-09-11T14:52:48.022Z,103.47
2022-09-11T15:02:53.959Z,100.63
2022-09-11T15:12:58.856Z,105.43
2022-09-11T15:23:06.618Z,100.37
2022-09-11T15:33:10.962Z,104.13
2022-09-11T15:43:16.056Z,99.43
2022-09-11T15:53:21.714Z,97.57
2022-09-11T16:03:27.481Z,96.80
2022-09-11T16:13:32.535Z,102.67
2022-09-11T16:23:38.661Z,98.20
2022-09-11T16:33:45.421Z,107.27
2022-09-11T16:43:52.598Z,100.10
2022-09-11T16:53:56.487Z,97.30
2022-09-11T17:04:01.725Z,100.37
2022-09-11T17:14:05.638Z,103.13
2022-09-11T17:24:10.936Z,100.40
2022-09-11T17:34:15.748Z,101.80
2022-09-11T17:44:24.229Z,102.60
2022-09-11T17:54:28.302Z,100.73
2022-09-11T18:04:33.050Z,107.43
2022-09-11T18:14:39.789Z,101.60
2022-09-11T18:24:44.836Z,104.13
2022-09-11T18:34:49.792Z,100.07
2022-09-11T18:44:54.674Z,97.83
2022-09-11T18:55:00.093Z,93.63
2022-09-11T19:05:06.056Z,105.43
2022-09-11T19:15:11.707Z,94.33
2022-09-11T19:25:17.234Z,115.40
2022-09-11T19:35:21.210Z,93.43
2022-09-11T19:45:26.255Z,96.07
2022-09-11T19:55:29.978Z,90.83
2022-09-11T20:05:35.185Z,95.07
2022-09-11T20:15:40.098Z,108.13
2022-09-11T20:25:45.128Z,100.10
2022-09-11T20:35:48.779Z,104.17
2022-09-11T20:45:55.637Z,108.10
2022-09-11T20:56:03.350Z,97.97
2022-09-11T21:06:09.933Z,95.53
2022-09-11T21:16:16.019Z,96.10
2022-09-11T21:26:20.997Z,95.60
2022-09-11T21:36:24.933Z,96.93
2022-09-11T21:46:30.024Z,93.83
2022-09-11T21:56:35.302Z,95.73
2022-09-11T22:06:40.387Z,96.50
2022-09-11T22:16:44.105Z,97.07
2022-09-11T22:26:49.349Z,101.47
2022-09-11T22:36:52.930Z,98.63
2022-09-11T22:46:58.028Z,94.20
2022-09-11T22:57:01.743Z,97.10
2022-09-11T23:07:17.018Z,99.03
2022-09-11T23:17:20.701Z,96.60
2022-09-11T23:27:25.904Z,110.07
2022-09-11T23:37:29.516Z,98.13
2022-09-11T23:47:34.503Z,92.53
2022-09-11T23:57:38.388Z,95.77
